sensor_id;sensor_type;location;lat;lon;timestamp;temperature;humidity
7413;DHT22;3748;48.136;11.538;2023-02-08T00:01:26;-3.50;99.90
7413;DHT22;3748;48.136;11.538;2023-02-08T00:03:53;-3.50;99.90
7413;DHT22;3748;48.136;11.538;2023-02-08T00:06:20;-3.40;99.90
7413;DHT22;3748;48.136;11.538;2023-02-08T00:08:46;-3.50;99.90
7413;DHT22;3748;48.136;11.538;2023-02-08T00:11:13;-3.50;99.90
7413;DHT22;3748;48.136;11.538;2023-02-08T00:13:41;-3.60;99.90
7413;DHT22;3748;48.136;11.538;2023-02-08T00:16:08;-3.60;99.90
7413;DHT22;3748;48.136;11.538;2023-02-08T00:18:36;-3.70;99.90
7413;DHT22;3748;48.136;11.538;2023-02-08T00:21:07;-3.60;99.90
7413;DHT22;3748;48.136;11.538;2023-02-08T00:23:34;-3.60;99.90
7413;DHT22;3748;48.136;11.538;2023-02-08T00:26:01;-3.60;99.90
7413;DHT22;3748;48.136;11.538;2023-02-08T00:28:27;-3.50;99.90
7413;DHT22;3748;48.136;11.538;2023-02-08T00:30:56;-3.80;99.90
7413;DHT22;3748;48.136;11.538;2023-02-08T00:33:23;-3.60;99.90
7413;DHT22;3748;48.136;11.538;2023-02-08T00:35:50;-3.70;99.90
7413;DHT22;3748;48.136;11.538;2023-02-08T00:38:17;-3.70;99.90
7413;DHT22;3748;48.136;11.538;2023-02-08T00:40:44;-3.70;99.90
7413;DHT22;3748;48.136;11.538;2023-02-08T00:43:11;-3.90;99.90
7413;DHT22;3748;48.136;11.538;2023-02-08T00:45:37;-3.70;99.90
7413;DHT22;3748;48.136;11.538;2023-02-08T00:48:05;-3.70;99.90
7413;DHT22;3748;48.136;11.538;2023-02-08T00:50:32;-3.80;99.90
7413;DHT22;3748;48.136;11.538;2023-02-08T00:52:59;-3.80;99.90
7413;DHT22;3748;48.136;11.538;2023-02-08T00:55:26;-3.70;99.90
7413;DHT22;3748;48.136;11.538;2023-02-08T00:57:53;-3.70;99.90
7413;DHT22;3748;48.136;11.538;2023-02-08T01:00:20;-3.70;99.90
7413;DHT22;3748;48.136;11.538;2023-02-08T01:02:47;-3.70;99.90
7413;DHT22;3748;48.136;11.538;2023-02-08T01:05:15;-3.60;99.90
7413;DHT22;3748;48.136;11.538;2023-02-08T01:07:42;-4.00;99.90
7413;DHT22;3748;48.136;11.538;2023-02-08T01:10:09;-3.80;99.90
7413;DHT22;3748;48.136;11.538;2023-02-08T01:12:37;-3.80;99.90
7413;DHT22;3748;48.136;11.538;2023-02-08T01:15:04;-3.80;99.90
7413;DHT22;3748;48.136;11.538;2023-02-08T01:17:31;-3.80;99.90
7413;DHT22;3748;48.136;11.538;2023-02-08T01:19:58;-3.90;99.90
7413;DHT22;3748;48.136;11.538;2023-02-08T01:22:27;-3.90;99.90
7413;DHT22;3748;48.136;11.538;2023-02-08T01:24:54;-3.80;99.90
7413;DHT22;3748;48.136;11.538;2023-02-08T01:27:21;-3.90;99.90
7413;DHT22;3748;48.136;11.538;2023-02-08T01:29:48;-3.90;99.90
7413;DHT22;3748;48.136;11.538;2023-02-08T01:32:14;-3.40;99.90
7413;DHT22;3748;48.136;11.538;2023-02-08T01:34:41;-3.90;99.90
7413;DHT22;3748;48.136;11.538;2023-02-08T01:37:08;-3.90;99.90
7413;DHT22;3748;48.136;11.538;2023-02-08T01:39:36;-3.90;99.90
7413;DHT22;3748;48.136;11.538;2023-02-08T01:42:03;-4.00;99.90
7413;DHT22;3748;48.136;11.538;2023-02-08T01:47:33;-4.20;99.90
7413;DHT22;3748;48.136;11.538;2023-02-08T01:50:00;-4.10;99.90
7413;DHT22;3748;48.136;11.538;2023-02-08T01:52:27;-4.20;99.90
7413;DHT22;3748;48.136;11.538;2023-02-08T01:54:59;-4.10;99.90
7413;DHT22;3748;48.136;11.538;2023-02-08T01:57:26;-4.20;99.90
7413;DHT22;3748;48.136;11.538;2023-02-08T01:59:55;-4.10;99.90
7413;DHT22;3748;48.136;11.538;2023-02-08T02:02:25;-4.20;99.90
7413;DHT22;3748;48.136;11.538;2023-02-08T02:04:54;-4.50;99.90
7413;DHT22;3748;48.136;11.538;2023-02-08T02:07:25;-4.40;99.90
7413;DHT22;3748;48.136;11.538;2023-02-08T02:09:58;-4.30;99.90
7413;DHT22;3748;48.136;11.538;2023-02-08T02:12:29;-4.30;99.90
7413;DHT22;3748;48.136;11.538;2023-02-08T02:14:56;-4.30;99.90
7413;DHT22;3748;48.136;11.538;2023-02-08T02:36:13;-4.70;99.90
7413;DHT22;3748;48.136;11.538;2023-02-08T02:38:52;-4.50;99.90
7413;DHT22;3748;48.136;11.538;2023-02-08T02:41:27;-4.60;99.90
7413;DHT22;3748;48.136;11.538;2023-02-08T02:44:20;-4.50;99.90
7413;DHT22;3748;48.136;11.538;2023-02-08T02:46:55;-4.60;99.90
7413;DHT22;3748;48.136;11.538;2023-02-08T02:49:31;-4.40;99.90
7413;DHT22;3748;48.136;11.538;2023-02-08T02:52:03;-4.50;99.90
7413;DHT22;3748;48.136;11.538;2023-02-08T02:54:35;-4.50;99.90
7413;DHT22;3748;48.136;11.538;2023-02-08T02:57:08;-4.60;99.90
7413;DHT22;3748;48.136;11.538;2023-02-08T02:59:37;-4.50;99.90
7413;DHT22;3748;48.136;11.538;2023-02-08T03:02:04;-4.60;99.90
7413;DHT22;3748;48.136;11.538;2023-02-08T03:04:51;-4.70;99.90
7413;DHT22;3748;48.136;11.538;2023-02-08T03:07:35;-4.60;99.90
7413;DHT22;3748;48.136;11.538;2023-02-08T03:10:10;-4.60;99.90
7413;DHT22;3748;48.136;11.538;2023-02-08T03:12:45;-4.60;99.90
7413;DHT22;3748;48.136;11.538;2023-02-08T03:15:26;-4.60;99.90
7413;DHT22;3748;48.136;11.538;2023-02-08T03:18:02;-4.60;99.90
7413;DHT22;3748;48.136;11.538;2023-02-08T03:20:34;-4.50;99.90
7413;DHT22;3748;48.136;11.538;2023-02-08T03:23:08;-4.50;99.90
7413;DHT22;3748;48.136;11.538;2023-02-08T03:25:48;-4.60;99.90
7413;DHT22;3748;48.136;11.538;2023-02-08T03:28:20;-4.60;99.90
7413;DHT22;3748;48.136;11.538;2023-02-08T03:30:55;-4.60;99.90
7413;DHT22;3748;48.136;11.538;2023-02-08T03:33:27;-4.60;99.90
7413;DHT22;3748;48.136;11.538;2023-02-08T03:36:01;-4.70;99.90
7413;DHT22;3748;48.136;11.538;2023-02-08T03:38:31;-4.70;99.90
7413;DHT22;3748;48.136;11.538;2023-02-08T03:41:00;-4.70;99.90
7413;DHT22;3748;48.136;11.538;2023-02-08T03:43:32;-4.70;99.90
7413;DHT22;3748;48.136;11.538;2023-02-08T03:46:05;-4.70;99.90
7413;DHT22;3748;48.136;11.538;2023-02-08T03:48:33;-4.70;99.90
7413;DHT22;3748;48.136;11.538;2023-02-08T03:51:04;-4.70;99.90
7413;DHT22;3748;48.136;11.538;2023-02-08T03:53:32;-4.70;99.90
7413;DHT22;3748;48.136;11.538;2023-02-08T03:56:07;-4.60;99.90
7413;DHT22;3748;48.136;11.538;2023-02-08T03:58:41;-4.70;99.90
7413;DHT22;3748;48.136;11.538;2023-02-08T04:01:14;-4.70;99.90
7413;DHT22;3748;48.136;11.538;2023-02-08T04:03:42;-4.70;99.90
7413;DHT22;3748;48.136;11.538;2023-02-08T04:06:11;-4.70;99.90
7413;DHT22;3748;48.136;11.538;2023-02-08T04:08:38;-4.70;99.90
7413;DHT22;3748;48.136;11.538;2023-02-08T04:11:05;-4.40;99.90
7413;DHT22;3748;48.136;11.538;2023-02-08T04:13:32;-4.70;99.90
7413;DHT22;3748;48.136;11.538;2023-02-08T04:15:59;-4.70;99.90
7413;DHT22;3748;48.136;11.538;2023-02-08T04:25:48;-4.80;99.90
7413;DHT22;3748;48.136;11.538;2023-02-08T04:38:04;-4.80;99.90
7413;DHT22;3748;48.136;11.538;2023-02-08T04:40:32;-4.80;99.90
7413;DHT22;3748;48.136;11.538;2023-02-08T04:42:59;-4.90;99.90
7413;DHT22;3748;48.136;11.538;2023-02-08T04:45:26;-4.90;99.90
7413;DHT22;3748;48.136;11.538;2023-02-08T04:47:54;-4.90;99.90
7413;DHT22;3748;48.136;11.538;2023-02-08T04:50:21;-5.00;99.90
7413;DHT22;3748;48.136;11.538;2023-02-08T05:00:11;-4.70;99.90
7413;DHT22;3748;48.136;11.538;2023-02-08T05:12:26;-4.80;99.90
7413;DHT22;3748;48.136;11.538;2023-02-08T05:14:54;-4.90;99.90
7413;DHT22;3748;48.136;11.538;2023-02-08T05:32:05;-4.90;99.90
7413;DHT22;3748;48.136;11.538;2023-02-08T05:34:32;-5.10;99.90
7413;DHT22;3748;48.136;11.538;2023-02-08T05:36:59;-5.10;99.90
7413;DHT22;3748;48.136;11.538;2023-02-08T05:39:25;-5.10;99.90
7413;DHT22;3748;48.136;11.538;2023-02-08T05:41:52;-5.10;99.90
7413;DHT22;3748;48.136;11.538;2023-02-08T05:44:19;-5.00;99.90
7413;DHT22;3748;48.136;11.538;2023-02-08T05:46:46;-5.10;99.90
7413;DHT22;3748;48.136;11.538;2023-02-08T05:49:14;-5.10;99.90
7413;DHT22;3748;48.136;11.538;2023-02-08T05:51:41;-5.10;99.90
7413;DHT22;3748;48.136;11.538;2023-02-08T05:54:08;-5.00;99.90
7413;DHT22;3748;48.136;11.538;2023-02-08T05:56:34;-5.10;99.90
7413;DHT22;3748;48.136;11.538;2023-02-08T05:59:02;-5.10;99.90
7413;DHT22;3748;48.136;11.538;2023-02-08T06:01:29;-5.10;99.90
7413;DHT22;3748;48.136;11.538;2023-02-08T06:03:57;-5.10;99.90
7413;DHT22;3748;48.136;11.538;2023-02-08T06:06:25;-5.20;99.90
7413;DHT22;3748;48.136;11.538;2023-02-08T06:08:52;-5.10;99.90
7413;DHT22;3748;48.136;11.538;2023-02-08T06:11:19;-5.20;99.90
7413;DHT22;3748;48.136;11.538;2023-02-08T06:13:46;-5.10;99.90
7413;DHT22;3748;48.136;11.538;2023-02-08T06:16:14;-5.10;99.90
7413;DHT22;3748;48.136;11.538;2023-02-08T06:18:41;-5.10;99.90
7413;DHT22;3748;48.136;11.538;2023-02-08T06:21:07;-5.10;99.90
7413;DHT22;3748;48.136;11.538;2023-02-08T06:23:36;-5.20;99.90
7413;DHT22;3748;48.136;11.538;2023-02-08T06:26:03;-5.20;99.90
7413;DHT22;3748;48.136;11.538;2023-02-08T06:28:29;-4.90;99.90
7413;DHT22;3748;48.136;11.538;2023-02-08T06:30:58;-5.20;99.90
7413;DHT22;3748;48.136;11.538;2023-02-08T06:33:25;-5.20;99.90
7413;DHT22;3748;48.136;11.538;2023-02-08T06:35:52;-5.20;99.90
7413;DHT22;3748;48.136;11.538;2023-02-08T06:40:48;-5.20;99.90
7413;DHT22;3748;48.136;11.538;2023-02-08T06:43:16;-5.30;99.90
7413;DHT22;3748;48.136;11.538;2023-02-08T06:55:32;-5.00;99.90
7413;DHT22;3748;48.136;11.538;2023-02-08T06:58:00;-5.10;99.90
7413;DHT22;3748;48.136;11.538;2023-02-08T07:00:27;-5.10;99.90
7413;DHT22;3748;48.136;11.538;2023-02-08T07:02:54;-5.00;99.90
7413;DHT22;3748;48.136;11.538;2023-02-08T07:05:20;-5.10;99.90
7413;DHT22;3748;48.136;11.538;2023-02-08T07:07:47;-5.00;99.90
7413;DHT22;3748;48.136;11.538;2023-02-08T07:10:14;-5.00;99.90
7413;DHT22;3748;48.136;11.538;2023-02-08T07:12:41;-5.00;99.90
7413;DHT22;3748;48.136;11.538;2023-02-08T07:15:10;-5.20;99.90
7413;DHT22;3748;48.136;11.538;2023-02-08T07:17:38;-5.10;99.90
7413;DHT22;3748;48.136;11.538;2023-02-08T07:20:05;-5.00;99.90
7413;DHT22;3748;48.136;11.538;2023-02-08T07:22:32;-5.00;99.90
7413;DHT22;3748;48.136;11.538;2023-02-08T07:24:59;-5.00;99.90
7413;DHT22;3748;48.136;11.538;2023-02-08T07:27:26;-5.00;99.90
7413;DHT22;3748;48.136;11.538;2023-02-08T07:29:53;-5.00;99.90
7413;DHT22;3748;48.136;11.538;2023-02-08T07:32:21;-4.90;99.90
7413;DHT22;3748;48.136;11.538;2023-02-08T07:34:48;-4.80;99.90
7413;DHT22;3748;48.136;11.538;2023-02-08T07:37:14;-4.90;99.90
7413;DHT22;3748;48.136;11.538;2023-02-08T07:39:41;-4.70;99.90
7413;DHT22;3748;48.136;11.538;2023-02-08T07:42:08;-4.70;99.90
7413;DHT22;3748;48.136;11.538;2023-02-08T07:44:36;-4.80;99.90
7413;DHT22;3748;48.136;11.538;2023-02-08T07:47:03;-4.60;99.90
7413;DHT22;3748;48.136;11.538;2023-02-08T07:49:31;-4.70;99.90
7413;DHT22;3748;48.136;11.538;2023-02-08T07:51:58;-4.70;99.90
7413;DHT22;3748;48.136;11.538;2023-02-08T07:54:25;-4.60;99.90
7413;DHT22;3748;48.136;11.538;2023-02-08T07:56:52;-4.60;99.90
7413;DHT22;3748;48.136;11.538;2023-02-08T07:59:19;-4.50;99.90
7413;DHT22;3748;48.136;11.538;2023-02-08T08:01:46;-4.40;99.90
7413;DHT22;3748;48.136;11.538;2023-02-08T08:04:13;-4.30;99.90
7413;DHT22;3748;48.136;11.538;2023-02-08T08:06:41;-4.20;99.90
7413;DHT22;3748;48.136;11.538;2023-02-08T08:09:08;-4.10;99.90
7413;DHT22;3748;48.136;11.538;2023-02-08T08:11:35;-4.10;99.90
7413;DHT22;3748;48.136;11.538;2023-02-08T08:14:01;-3.90;99.90
7413;DHT22;3748;48.136;11.538;2023-02-08T08:16:28;-3.80;99.90
7413;DHT22;3748;48.136;11.538;2023-02-08T08:18:55;-3.60;99.90
7413;DHT22;3748;48.136;11.538;2023-02-08T08:21:22;-3.60;99.90
7413;DHT22;3748;48.136;11.538;2023-02-08T08:23:50;-3.50;99.90
7413;DHT22;3748;48.136;11.538;2023-02-08T08:26:19;-3.50;99.90
7413;DHT22;3748;48.136;11.538;2023-02-08T08:28:46;-3.30;99.90
7413;DHT22;3748;48.136;11.538;2023-02-08T08:31:15;-3.30;99.90
7413;DHT22;3748;48.136;11.538;2023-02-08T08:33:43;-3.30;99.90
7413;DHT22;3748;48.136;11.538;2023-02-08T08:36:10;-3.00;99.90
7413;DHT22;3748;48.136;11.538;2023-02-08T08:38:38;-2.90;99.90
7413;DHT22;3748;48.136;11.538;2023-02-08T17:09:32;-0.40;99.90
7413;DHT22;3748;48.136;11.538;2023-02-08T17:11:59;-0.70;99.90
7413;DHT22;3748;48.136;11.538;2023-02-08T17:14:26;-0.70;99.90
7413;DHT22;3748;48.136;11.538;2023-02-08T17:16:53;-1.00;99.90
7413;DHT22;3748;48.136;11.538;2023-02-08T17:19:22;-1.10;99.90
7413;DHT22;3748;48.136;11.538;2023-02-08T17:21:49;-1.10;99.90
7413;DHT22;3748;48.136;11.538;2023-02-08T17:24:18;-1.20;99.90
7413;DHT22;3748;48.136;11.538;2023-02-08T17:26:45;-1.20;99.90
7413;DHT22;3748;48.136;11.538;2023-02-08T17:29:12;-0.90;99.90
7413;DHT22;3748;48.136;11.538;2023-02-08T17:31:39;-1.50;99.90
7413;DHT22;3748;48.136;11.538;2023-02-08T17:34:06;-1.40;99.90
7413;DHT22;3748;48.136;11.538;2023-02-08T17:36:37;-1.60;99.90
7413;DHT22;3748;48.136;11.538;2023-02-08T17:39:05;-1.40;99.90
7413;DHT22;3748;48.136;11.538;2023-02-08T17:41:33;-1.20;99.90
7413;DHT22;3748;48.136;11.538;2023-02-08T17:44:02;-1.40;99.90
7413;DHT22;3748;48.136;11.538;2023-02-08T17:46:30;-1.20;99.90
7413;DHT22;3748;48.136;11.538;2023-02-08T17:48:58;-1.30;99.90
7413;DHT22;3748;48.136;11.538;2023-02-08T17:51:26;-1.40;99.90
7413;DHT22;3748;48.136;11.538;2023-02-08T17:53:53;-1.50;99.90
7413;DHT22;3748;48.136;11.538;2023-02-08T17:56:24;-1.50;99.90
7413;DHT22;3748;48.136;11.538;2023-02-08T17:58:54;-1.50;99.90
7413;DHT22;3748;48.136;11.538;2023-02-08T18:01:26;-1.50;99.90
7413;DHT22;3748;48.136;11.538;2023-02-08T18:03:53;-1.50;99.90
7413;DHT22;3748;48.136;11.538;2023-02-08T18:06:21;-1.20;99.90
7413;DHT22;3748;48.136;11.538;2023-02-08T18:08:49;-1.40;99.90
7413;DHT22;3748;48.136;11.538;2023-02-08T18:11:18;-1.50;99.90
7413;DHT22;3748;48.136;11.538;2023-02-08T18:13:46;-1.60;99.90
7413;DHT22;3748;48.136;11.538;2023-02-08T18:16:17;-1.60;99.90
7413;DHT22;3748;48.136;11.538;2023-02-08T18:18:44;-1.60;99.90
7413;DHT22;3748;48.136;11.538;2023-02-08T18:21:15;-1.50;99.90
7413;DHT22;3748;48.136;11.538;2023-02-08T18:23:42;-1.60;99.90
7413;DHT22;3748;48.136;11.538;2023-02-08T18:26:10;-1.70;99.90
7413;DHT22;3748;48.136;11.538;2023-02-08T18:28:37;-1.50;99.90
7413;DHT22;3748;48.136;11.538;2023-02-08T18:31:06;-1.50;99.90
7413;DHT22;3748;48.136;11.538;2023-02-08T18:33:36;-1.50;99.90
7413;DHT22;3748;48.136;11.538;2023-02-08T18:36:04;-1.50;99.90
7413;DHT22;3748;48.136;11.538;2023-02-08T18:38:31;-1.60;99.90
7413;DHT22;3748;48.136;11.538;2023-02-08T18:40:58;-1.70;99.90
7413;DHT22;3748;48.136;11.538;2023-02-08T18:43:26;-1.70;99.90
7413;DHT22;3748;48.136;11.538;2023-02-08T18:45:59;-1.70;99.90
7413;DHT22;3748;48.136;11.538;2023-02-08T18:48:27;-1.70;99.90
7413;DHT22;3748;48.136;11.538;2023-02-08T18:50:57;-1.70;99.90
7413;DHT22;3748;48.136;11.538;2023-02-08T18:53:25;-1.80;99.90
7413;DHT22;3748;48.136;11.538;2023-02-08T18:55:53;-1.80;99.90
7413;DHT22;3748;48.136;11.538;2023-02-08T18:58:20;-1.80;99.90
7413;DHT22;3748;48.136;11.538;2023-02-08T19:00:47;-1.80;99.90
7413;DHT22;3748;48.136;11.538;2023-02-08T19:03:15;-1.80;99.90
7413;DHT22;3748;48.136;11.538;2023-02-08T19:05:42;-1.80;99.90
7413;DHT22;3748;48.136;11.538;2023-02-08T19:08:10;-1.80;99.90
7413;DHT22;3748;48.136;11.538;2023-02-08T19:10:38;-1.90;99.90
7413;DHT22;3748;48.136;11.538;2023-02-08T19:13:05;-1.80;99.90
7413;DHT22;3748;48.136;11.538;2023-02-08T19:15:34;-1.70;99.90
7413;DHT22;3748;48.136;11.538;2023-02-08T19:18:01;-1.90;99.90
7413;DHT22;3748;48.136;11.538;2023-02-08T19:20:28;-2.00;99.90
7413;DHT22;3748;48.136;11.538;2023-02-08T19:22:55;-2.00;99.90
7413;DHT22;3748;48.136;11.538;2023-02-08T19:25:24;-2.10;99.90
7413;DHT22;3748;48.136;11.538;2023-02-08T19:27:51;-2.10;99.90
7413;DHT22;3748;48.136;11.538;2023-02-08T19:30:18;-2.20;99.90
7413;DHT22;3748;48.136;11.538;2023-02-08T19:32:45;-2.10;99.90
7413;DHT22;3748;48.136;11.538;2023-02-08T19:35:12;-2.20;99.90
7413;DHT22;3748;48.136;11.538;2023-02-08T19:37:39;-2.20;99.90
7413;DHT22;3748;48.136;11.538;2023-02-08T19:40:08;-2.40;99.90
7413;DHT22;3748;48.136;11.538;2023-02-08T19:42:37;-2.30;99.90
7413;DHT22;3748;48.136;11.538;2023-02-08T19:45:04;-2.20;99.90
7413;DHT22;3748;48.136;11.538;2023-02-08T19:47:31;-1.80;99.90
7413;DHT22;3748;48.136;11.538;2023-02-08T19:50:05;-2.30;99.90
7413;DHT22;3748;48.136;11.538;2023-02-08T19:52:35;-2.30;99.90
7413;DHT22;3748;48.136;11.538;2023-02-08T19:55:07;-2.40;99.90
7413;DHT22;3748;48.136;11.538;2023-02-08T19:57:38;-2.40;99.90
7413;DHT22;3748;48.136;11.538;2023-02-08T20:00:06;-2.40;99.90
7413;DHT22;3748;48.136;11.538;2023-02-08T20:02:33;-2.40;99.90
7413;DHT22;3748;48.136;11.538;2023-02-08T20:05:00;-2.40;99.90
7413;DHT22;3748;48.136;11.538;2023-02-08T20:07:27;-2.40;99.90
7413;DHT22;3748;48.136;11.538;2023-02-08T20:09:54;-2.50;99.90
7413;DHT22;3748;48.136;11.538;2023-02-08T20:12:20;-2.50;99.90
7413;DHT22;3748;48.136;11.538;2023-02-08T20:14:49;-2.40;99.90
7413;DHT22;3748;48.136;11.538;2023-02-08T20:17:15;-2.30;99.90
7413;DHT22;3748;48.136;11.538;2023-02-08T20:19:42;-2.40;99.90
7413;DHT22;3748;48.136;11.538;2023-02-08T20:22:09;-2.50;99.90
7413;DHT22;3748;48.136;11.538;2023-02-08T20:24:36;-2.60;99.90
7413;DHT22;3748;48.136;11.538;2023-02-08T20:27:02;-2.50;99.90
7413;DHT22;3748;48.136;11.538;2023-02-08T20:29:30;-2.50;99.90
7413;DHT22;3748;48.136;11.538;2023-02-08T20:31:58;-2.50;99.90
7413;DHT22;3748;48.136;11.538;2023-02-08T20:34:25;-2.50;99.90
7413;DHT22;3748;48.136;11.538;2023-02-08T20:36:52;-2.60;99.90
7413;DHT22;3748;48.136;11.538;2023-02-08T20:39:19;-2.70;99.90
7413;DHT22;3748;48.136;11.538;2023-02-08T20:41:46;-2.60;99.90
7413;DHT22;3748;48.136;11.538;2023-02-08T20:44:15;-2.60;99.90
7413;DHT22;3748;48.136;11.538;2023-02-08T20:46:43;-2.70;99.90
7413;DHT22;3748;48.136;11.538;2023-02-08T20:49:12;-2.60;99.90
7413;DHT22;3748;48.136;11.538;2023-02-08T20:51:45;-2.50;99.90
7413;DHT22;3748;48.136;11.538;2023-02-08T20:54:15;-2.70;99.90
7413;DHT22;3748;48.136;11.538;2023-02-08T20:56:42;-2.80;99.90
7413;DHT22;3748;48.136;11.538;2023-02-08T20:59:11;-2.70;99.90
7413;DHT22;3748;48.136;11.538;2023-02-08T21:01:40;-2.80;99.90
7413;DHT22;3748;48.136;11.538;2023-02-08T21:04:08;-2.70;99.90
7413;DHT22;3748;48.136;11.538;2023-02-08T21:06:38;-2.70;99.90
7413;DHT22;3748;48.136;11.538;2023-02-08T21:09:07;-2.70;99.90
7413;DHT22;3748;48.136;11.538;2023-02-08T21:11:35;-2.80;99.90
7413;DHT22;3748;48.136;11.538;2023-02-08T21:14:03;-2.80;99.90
7413;DHT22;3748;48.136;11.538;2023-02-08T21:16:30;-2.80;99.90
7413;DHT22;3748;48.136;11.538;2023-02-08T21:18:58;-2.80;99.90
7413;DHT22;3748;48.136;11.538;2023-02-08T21:21:25;-2.90;99.90
7413;DHT22;3748;48.136;11.538;2023-02-08T21:23:54;-2.90;99.90
7413;DHT22;3748;48.136;11.538;2023-02-08T21:26:23;-3.00;99.90
7413;DHT22;3748;48.136;11.538;2023-02-08T21:28:51;-3.00;99.90
7413;DHT22;3748;48.136;11.538;2023-02-08T21:31:20;-2.90;99.90
7413;DHT22;3748;48.136;11.538;2023-02-08T21:33:47;-2.80;99.90
7413;DHT22;3748;48.136;11.538;2023-02-08T21:36:17;-2.90;99.90
7413;DHT22;3748;48.136;11.538;2023-02-08T21:38:44;-3.10;99.90
7413;DHT22;3748;48.136;11.538;2023-02-08T21:41:14;-3.00;99.90
7413;DHT22;3748;48.136;11.538;2023-02-08T21:43:42;-2.80;99.90
7413;DHT22;3748;48.136;11.538;2023-02-08T21:46:09;-2.90;99.90
7413;DHT22;3748;48.136;11.538;2023-02-08T21:48:36;-2.80;99.90
7413;DHT22;3748;48.136;11.538;2023-02-08T21:51:16;-2.90;99.90
7413;DHT22;3748;48.136;11.538;2023-02-08T21:54:00;-2.90;99.90
7413;DHT22;3748;48.136;11.538;2023-02-08T21:56:46;-2.90;99.90
7413;DHT22;3748;48.136;11.538;2023-02-08T21:59:13;-2.90;99.90
7413;DHT22;3748;48.136;11.538;2023-02-08T22:01:40;-2.90;99.90
7413;DHT22;3748;48.136;11.538;2023-02-08T22:04:07;-3.00;99.90
7413;DHT22;3748;48.136;11.538;2023-02-08T22:06:34;-3.00;99.90
7413;DHT22;3748;48.136;11.538;2023-02-08T22:09:17;-3.20;99.90
7413;DHT22;3748;48.136;11.538;2023-02-08T22:11:45;-3.10;99.90
7413;DHT22;3748;48.136;11.538;2023-02-08T22:14:13;-3.10;99.90
7413;DHT22;3748;48.136;11.538;2023-02-08T22:16:40;-3.20;99.90
7413;DHT22;3748;48.136;11.538;2023-02-08T22:19:07;-3.30;99.90
7413;DHT22;3748;48.136;11.538;2023-02-08T22:21:34;-3.40;99.90
7413;DHT22;3748;48.136;11.538;2023-02-08T22:24:01;-3.30;99.90
7413;DHT22;3748;48.136;11.538;2023-02-08T22:26:28;-3.30;99.90
7413;DHT22;3748;48.136;11.538;2023-02-08T22:28:56;-3.00;99.90
